sensor_id;sensor_type;location;lat;lon;timestamp;temperature;humidity
17348;DHT22;8791;50.876;4.342;2023-05-16T00:01:59;9.40;99.90
17348;DHT22;8791;50.876;4.342;2023-05-16T00:04:26;9.40;99.90
17348;DHT22;8791;50.876;4.342;2023-05-16T00:06:54;9.60;99.90
17348;DHT22;8791;50.876;4.342;2023-05-16T00:09:21;9.60;99.90
17348;DHT22;8791;50.876;4.342;2023-05-16T00:11:49;9.60;99.90
17348;DHT22;8791;50.876;4.342;2023-05-16T00:14:15;9.70;99.90
17348;DHT22;8791;50.876;4.342;2023-05-16T00:16:43;9.80;99.90
17348;DHT22;8791;50.876;4.342;2023-05-16T00:19:11;9.60;99.90
17348;DHT22;8791;50.876;4.342;2023-05-16T00:21:38;9.60;99.90
17348;DHT22;8791;50.876;4.342;2023-05-16T00:24:07;9.50;99.90
17348;DHT22;8791;50.876;4.342;2023-05-16T00:26:34;9.40;99.90
17348;DHT22;8791;50.876;4.342;2023-05-16T00:29:01;9.20;99.90
17348;DHT22;8791;50.876;4.342;2023-05-16T00:31:28;9.00;99.90
17348;DHT22;8791;50.876;4.342;2023-05-16T00:33:54;8.80;99.90
17348;DHT22;8791;50.876;4.342;2023-05-16T00:36:22;8.90;99.90
17348;DHT22;8791;50.876;4.342;2023-05-16T00:38:49;8.90;99.90
17348;DHT22;8791;50.876;4.342;2023-05-16T00:41:17;8.90;99.90
17348;DHT22;8791;50.876;4.342;2023-05-16T00:43:44;9.00;99.90
17348;DHT22;8791;50.876;4.342;2023-05-16T00:46:11;9.00;99.90
17348;DHT22;8791;50.876;4.342;2023-05-16T00:48:38;9.10;99.90
17348;DHT22;8791;50.876;4.342;2023-05-16T00:51:05;9.10;99.90
17348;DHT22;8791;50.876;4.342;2023-05-16T00:53:34;9.10;99.90
17348;DHT22;8791;50.876;4.342;2023-05-16T00:56:02;9.20;99.90
17348;DHT22;8791;50.876;4.342;2023-05-16T00:58:31;9.30;99.90
17348;DHT22;8791;50.876;4.342;2023-05-16T01:00:58;9.30;99.90
17348;DHT22;8791;50.876;4.342;2023-05-16T01:03:27;9.20;99.90
17348;DHT22;8791;50.876;4.342;2023-05-16T01:05:54;9.00;99.90
17348;DHT22;8791;50.876;4.342;2023-05-16T01:08:21;9.10;99.90
17348;DHT22;8791;50.876;4.342;2023-05-16T01:10:57;9.10;99.90
17348;DHT22;8791;50.876;4.342;2023-05-16T01:13:32;9.00;99.90
17348;DHT22;8791;50.876;4.342;2023-05-16T01:16:06;8.90;99.90
17348;DHT22;8791;50.876;4.342;2023-05-16T01:18:40;9.00;99.90
17348;DHT22;8791;50.876;4.342;2023-05-16T01:21:11;9.00;99.90
17348;DHT22;8791;50.876;4.342;2023-05-16T01:23:48;8.90;99.90
17348;DHT22;8791;50.876;4.342;2023-05-16T01:26:20;9.00;99.90
17348;DHT22;8791;50.876;4.342;2023-05-16T01:28:49;9.00;99.90
17348;DHT22;8791;50.876;4.342;2023-05-16T01:31:16;9.00;99.90
17348;DHT22;8791;50.876;4.342;2023-05-16T01:33:44;9.10;99.90
17348;DHT22;8791;50.876;4.342;2023-05-16T01:36:16;9.20;99.90
17348;DHT22;8791;50.876;4.342;2023-05-16T01:39:00;9.30;99.90
17348;DHT22;8791;50.876;4.342;2023-05-16T01:41:39;9.10;99.90
17348;DHT22;8791;50.876;4.342;2023-05-16T01:44:14;9.00;99.90
17348;DHT22;8791;50.876;4.342;2023-05-16T01:46:45;9.00;99.90
17348;DHT22;8791;50.876;4.342;2023-05-16T01:49:16;9.00;99.90
17348;DHT22;8791;50.876;4.342;2023-05-16T01:51:50;9.00;99.90
17348;DHT22;8791;50.876;4.342;2023-05-16T01:54:18;9.00;99.90
17348;DHT22;8791;50.876;4.342;2023-05-16T01:56:51;8.90;99.90
17348;DHT22;8791;50.876;4.342;2023-05-16T01:59:19;8.80;99.90
17348;DHT22;8791;50.876;4.342;2023-05-16T02:01:47;8.60;99.90
17348;DHT22;8791;50.876;4.342;2023-05-16T02:04:14;8.60;99.90
17348;DHT22;8791;50.876;4.342;2023-05-16T02:06:41;8.70;99.90
17348;DHT22;8791;50.876;4.342;2023-05-16T02:09:08;8.70;99.90
17348;DHT22;8791;50.876;4.342;2023-05-16T02:11:35;8.70;99.90
17348;DHT22;8791;50.876;4.342;2023-05-16T02:14:03;8.70;99.90
17348;DHT22;8791;50.876;4.342;2023-05-16T02:16:30;8.80;99.90
17348;DHT22;8791;50.876;4.342;2023-05-16T02:18:57;8.80;99.90
17348;DHT22;8791;50.876;4.342;2023-05-16T02:21:24;8.80;99.90
17348;DHT22;8791;50.876;4.342;2023-05-16T02:23:51;8.80;99.90
17348;DHT22;8791;50.876;4.342;2023-05-16T02:26:18;8.80;99.90
17348;DHT22;8791;50.876;4.342;2023-05-16T02:28:45;8.70;99.90
17348;DHT22;8791;50.876;4.342;2023-05-16T02:31:24;8.70;99.90
17348;DHT22;8791;50.876;4.342;2023-05-16T02:33:51;8.70;99.90
17348;DHT22;8791;50.876;4.342;2023-05-16T02:36:18;8.60;99.90
17348;DHT22;8791;50.876;4.342;2023-05-16T02:38:45;8.70;99.90
17348;DHT22;8791;50.876;4.342;2023-05-16T02:41:12;8.80;99.90
17348;DHT22;8791;50.876;4.342;2023-05-16T02:43:39;8.80;99.90
17348;DHT22;8791;50.876;4.342;2023-05-16T02:46:21;8.80;99.90
17348;DHT22;8791;50.876;4.342;2023-05-16T02:48:48;8.80;99.90
17348;DHT22;8791;50.876;4.342;2023-05-16T02:51:15;8.80;99.90
17348;DHT22;8791;50.876;4.342;2023-05-16T02:53:42;8.90;99.90
17348;DHT22;8791;50.876;4.342;2023-05-16T02:56:09;8.80;99.90
17348;DHT22;8791;50.876;4.342;2023-05-16T02:58:36;8.70;99.90
17348;DHT22;8791;50.876;4.342;2023-05-16T03:01:03;8.70;99.90
17348;DHT22;8791;50.876;4.342;2023-05-16T03:03:31;8.60;99.90
17348;DHT22;8791;50.876;4.342;2023-05-16T03:05:59;8.60;99.90
17348;DHT22;8791;50.876;4.342;2023-05-16T03:08:26;8.50;99.90
17348;DHT22;8791;50.876;4.342;2023-05-16T03:10:53;8.50;99.90
17348;DHT22;8791;50.876;4.342;2023-05-16T03:13:20;8.50;99.90
17348;DHT22;8791;50.876;4.342;2023-05-16T03:15:47;8.40;99.90
17348;DHT22;8791;50.876;4.342;2023-05-16T03:18:14;8.50;99.90
17348;DHT22;8791;50.876;4.342;2023-05-16T03:20:43;8.70;99.90
17348;DHT22;8791;50.876;4.342;2023-05-16T03:23:09;8.80;99.90
17348;DHT22;8791;50.876;4.342;2023-05-16T03:25:37;8.70;99.90
17348;DHT22;8791;50.876;4.342;2023-05-16T03:28:04;8.60;99.90
17348;DHT22;8791;50.876;4.342;2023-05-16T03:30:32;8.60;99.90
17348;DHT22;8791;50.876;4.342;2023-05-16T03:32:59;8.40;99.90
17348;DHT22;8791;50.876;4.342;2023-05-16T03:35:26;8.40;99.90
17348;DHT22;8791;50.876;4.342;2023-05-16T03:37:54;8.40;99.90
17348;DHT22;8791;50.876;4.342;2023-05-16T03:40:21;8.40;99.90
17348;DHT22;8791;50.876;4.342;2023-05-16T03:42:48;8.40;99.90
17348;DHT22;8791;50.876;4.342;2023-05-16T03:45:15;8.30;99.90
17348;DHT22;8791;50.876;4.342;2023-05-16T03:47:43;8.30;99.90
17348;DHT22;8791;50.876;4.342;2023-05-16T03:50:09;8.30;99.90
17348;DHT22;8791;50.876;4.342;2023-05-16T03:52:37;8.30;99.90
17348;DHT22;8791;50.876;4.342;2023-05-16T03:55:06;8.30;99.90
17348;DHT22;8791;50.876;4.342;2023-05-16T03:57:36;8.30;99.90
17348;DHT22;8791;50.876;4.342;2023-05-16T04:00:05;8.30;99.90
17348;DHT22;8791;50.876;4.342;2023-05-16T04:02:32;8.30;99.90
17348;DHT22;8791;50.876;4.342;2023-05-16T04:04:59;8.20;99.90
17348;DHT22;8791;50.876;4.342;2023-05-16T04:07:26;8.30;99.90
17348;DHT22;8791;50.876;4.342;2023-05-16T04:09:53;8.30;99.90
17348;DHT22;8791;50.876;4.342;2023-05-16T04:12:22;8.40;99.90
17348;DHT22;8791;50.876;4.342;2023-05-16T04:14:49;8.30;99.90
17348;DHT22;8791;50.876;4.342;2023-05-16T04:17:16;8.30;99.90
17348;DHT22;8791;50.876;4.342;2023-05-16T04:19:43;8.40;99.90
17348;DHT22;8791;50.876;4.342;2023-05-16T04:22:09;8.40;99.90
17348;DHT22;8791;50.876;4.342;2023-05-16T04:24:36;8.50;99.90
17348;DHT22;8791;50.876;4.342;2023-05-16T04:27:04;8.50;99.90
17348;DHT22;8791;50.876;4.342;2023-05-16T04:29:34;8.60;99.90
17348;DHT22;8791;50.876;4.342;2023-05-16T04:32:01;8.60;99.90
17348;DHT22;8791;50.876;4.342;2023-05-16T04:34:28;8.90;99.90
17348;DHT22;8791;50.876;4.342;2023-05-16T04:36:55;9.30;99.90
17348;DHT22;8791;50.876;4.342;2023-05-16T04:39:22;9.80;99.90
17348;DHT22;8791;50.876;4.342;2023-05-16T04:41:49;10.10;99.90
17348;DHT22;8791;50.876;4.342;2023-05-16T04:44:16;10.60;99.90
17348;DHT22;8791;50.876;4.342;2023-05-16T04:46:44;11.20;99.90
17348;DHT22;8791;50.876;4.342;2023-05-16T04:49:11;11.40;99.90
17348;DHT22;8791;50.876;4.342;2023-05-16T04:51:38;11.80;99.90
17348;DHT22;8791;50.876;4.342;2023-05-16T04:54:05;12.30;99.90
17348;DHT22;8791;50.876;4.342;2023-05-16T04:56:35;12.90;99.90
17348;DHT22;8791;50.876;4.342;2023-05-16T04:59:02;13.20;99.90
17348;DHT22;8791;50.876;4.342;2023-05-16T05:01:29;13.50;99.90
17348;DHT22;8791;50.876;4.342;2023-05-16T05:03:58;13.60;99.90
17348;DHT22;8791;50.876;4.342;2023-05-16T05:06:24;13.70;99.90
17348;DHT22;8791;50.876;4.342;2023-05-16T05:08:52;13.20;99.90
17348;DHT22;8791;50.876;4.342;2023-05-16T05:11:19;13.10;99.90
17348;DHT22;8791;50.876;4.342;2023-05-16T05:13:47;12.90;99.90
17348;DHT22;8791;50.876;4.342;2023-05-16T05:16:14;12.90;99.90
17348;DHT22;8791;50.876;4.342;2023-05-16T05:18:41;12.50;99.90
17348;DHT22;8791;50.876;4.342;2023-05-16T05:21:10;12.00;99.90
17348;DHT22;8791;50.876;4.342;2023-05-16T05:23:37;11.10;99.90
17348;DHT22;8791;50.876;4.342;2023-05-16T05:26:04;10.60;99.90
17348;DHT22;8791;50.876;4.342;2023-05-16T05:28:31;10.50;99.90
17348;DHT22;8791;50.876;4.342;2023-05-16T05:30:58;10.30;99.90
17348;DHT22;8791;50.876;4.342;2023-05-16T05:33:26;10.20;99.90
17348;DHT22;8791;50.876;4.342;2023-05-16T05:35:53;10.10;99.90
17348;DHT22;8791;50.876;4.342;2023-05-16T05:38:22;10.00;99.90
17348;DHT22;8791;50.876;4.342;2023-05-16T05:40:49;10.00;99.90
17348;DHT22;8791;50.876;4.342;2023-05-16T05:43:16;9.90;99.90
17348;DHT22;8791;50.876;4.342;2023-05-16T05:45:43;10.00;99.90
17348;DHT22;8791;50.876;4.342;2023-05-16T05:48:11;9.80;99.90
17348;DHT22;8791;50.876;4.342;2023-05-16T05:50:38;9.90;99.90
17348;DHT22;8791;50.876;4.342;2023-05-16T05:53:05;10.10;99.90
17348;DHT22;8791;50.876;4.342;2023-05-16T05:55:33;10.00;99.90
17348;DHT22;8791;50.876;4.342;2023-05-16T05:58:00;9.80;99.90
17348;DHT22;8791;50.876;4.342;2023-05-16T06:00:27;9.90;99.90
17348;DHT22;8791;50.876;4.342;2023-05-16T06:02:54;9.80;99.90
17348;DHT22;8791;50.876;4.342;2023-05-16T06:05:21;9.80;99.90
17348;DHT22;8791;50.876;4.342;2023-05-16T06:07:49;9.90;99.90
17348;DHT22;8791;50.876;4.342;2023-05-16T06:10:16;9.90;99.90
17348;DHT22;8791;50.876;4.342;2023-05-16T06:12:45;9.90;99.90
17348;DHT22;8791;50.876;4.342;2023-05-16T06:15:12;10.00;99.90
17348;DHT22;8791;50.876;4.342;2023-05-16T06:17:39;10.10;99.90
17348;DHT22;8791;50.876;4.342;2023-05-16T06:20:07;10.20;99.90
17348;DHT22;8791;50.876;4.342;2023-05-16T06:22:34;10.20;99.90
17348;DHT22;8791;50.876;4.342;2023-05-16T06:25:01;10.20;99.90
17348;DHT22;8791;50.876;4.342;2023-05-16T06:27:28;10.30;99.90
17348;DHT22;8791;50.876;4.342;2023-05-16T06:29:57;10.30;99.90
17348;DHT22;8791;50.876;4.342;2023-05-16T06:32:24;10.40;99.90
17348;DHT22;8791;50.876;4.342;2023-05-16T06:34:51;10.60;99.90
17348;DHT22;8791;50.876;4.342;2023-05-16T06:37:18;10.50;99.90
17348;DHT22;8791;50.876;4.342;2023-05-16T06:39:45;10.70;99.90
17348;DHT22;8791;50.876;4.342;2023-05-16T06:42:13;10.70;99.90
17348;DHT22;8791;50.876;4.342;2023-05-16T06:44:40;10.90;99.90
17348;DHT22;8791;50.876;4.342;2023-05-16T06:47:08;11.00;99.90
17348;DHT22;8791;50.876;4.342;2023-05-16T06:49:35;10.90;99.90
17348;DHT22;8791;50.876;4.342;2023-05-16T06:52:03;10.80;99.90
17348;DHT22;8791;50.876;4.342;2023-05-16T06:54:30;10.70;99.90
17348;DHT22;8791;50.876;4.342;2023-05-16T06:56:57;11.00;99.90
17348;DHT22;8791;50.876;4.342;2023-05-16T06:59:24;11.00;99.90
17348;DHT22;8791;50.876;4.342;2023-05-16T07:01:51;11.00;99.90
17348;DHT22;8791;50.876;4.342;2023-05-16T07:04:19;10.90;99.90
17348;DHT22;8791;50.876;4.342;2023-05-16T07:06:46;11.00;99.90
17348;DHT22;8791;50.876;4.342;2023-05-16T07:09:13;11.30;99.90
17348;DHT22;8791;50.876;4.342;2023-05-16T07:11:40;11.20;99.90
17348;DHT22;8791;50.876;4.342;2023-05-16T07:14:07;11.20;99.90
17348;DHT22;8791;50.876;4.342;2023-05-16T07:16:34;11.50;99.90
17348;DHT22;8791;50.876;4.342;2023-05-16T07:19:01;11.60;99.90
17348;DHT22;8791;50.876;4.342;2023-05-16T07:21:29;11.70;99.90
17348;DHT22;8791;50.876;4.342;2023-05-16T07:23:56;11.60;99.90
17348;DHT22;8791;50.876;4.342;2023-05-16T07:26:23;11.70;99.90
17348;DHT22;8791;50.876;4.342;2023-05-16T07:28:51;11.60;99.90
17348;DHT22;8791;50.876;4.342;2023-05-16T07:31:19;11.60;99.90
17348;DHT22;8791;50.876;4.342;2023-05-16T07:33:46;11.50;99.90
17348;DHT22;8791;50.876;4.342;2023-05-16T07:36:13;11.40;99.90
17348;DHT22;8791;50.876;4.342;2023-05-16T07:38:42;11.50;99.90
17348;DHT22;8791;50.876;4.342;2023-05-16T07:41:09;11.70;99.90
17348;DHT22;8791;50.876;4.342;2023-05-16T07:43:36;11.60;99.90
17348;DHT22;8791;50.876;4.342;2023-05-16T07:46:03;11.70;99.90
17348;DHT22;8791;50.876;4.342;2023-05-16T07:48:30;11.60;99.90
17348;DHT22;8791;50.876;4.342;2023-05-16T07:50:57;11.50;99.90
17348;DHT22;8791;50.876;4.342;2023-05-16T07:53:24;11.60;99.90
17348;DHT22;8791;50.876;4.342;2023-05-16T07:55:52;11.70;99.90
17348;DHT22;8791;50.876;4.342;2023-05-16T07:58:20;11.70;99.90
17348;DHT22;8791;50.876;4.342;2023-05-16T08:00:47;11.70;99.90
17348;DHT22;8791;50.876;4.342;2023-05-16T08:03:15;11.70;99.90
17348;DHT22;8791;50.876;4.342;2023-05-16T08:05:42;11.60;99.90
17348;DHT22;8791;50.876;4.342;2023-05-16T08:08:09;11.80;99.90
17348;DHT22;8791;50.876;4.342;2023-05-16T08:10:36;11.80;99.90
17348;DHT22;8791;50.876;4.342;2023-05-16T08:13:05;11.80;99.90
17348;DHT22;8791;50.876;4.342;2023-05-16T08:15:32;12.00;99.90
17348;DHT22;8791;50.876;4.342;2023-05-16T08:17:59;12.30;99.90
17348;DHT22;8791;50.876;4.342;2023-05-16T08:20:26;12.60;99.90
17348;DHT22;8791;50.876;4.342;2023-05-16T08:22:53;12.60;99.90
17348;DHT22;8791;50.876;4.342;2023-05-16T08:25:20;12.70;99.90
17348;DHT22;8791;50.876;4.342;2023-05-16T08:27:48;13.00;99.90
17348;DHT22;8791;50.876;4.342;2023-05-16T08:30:17;13.00;99.90
17348;DHT22;8791;50.876;4.342;2023-05-16T08:32:45;13.30;99.90
17348;DHT22;8791;50.876;4.342;2023-05-16T08:35:12;13.50;99.90
17348;DHT22;8791;50.876;4.342;2023-05-16T08:37:39;13.30;99.90
17348;DHT22;8791;50.876;4.342;2023-05-16T08:40:09;13.00;99.90
17348;DHT22;8791;50.876;4.342;2023-05-16T08:42:36;12.80;99.90
17348;DHT22;8791;50.876;4.342;2023-05-16T08:45:04;12.90;99.90
17348;DHT22;8791;50.876;4.342;2023-05-16T08:47:33;12.80;99.90
17348;DHT22;8791;50.876;4.342;2023-05-16T08:50:02;12.50;99.90
17348;DHT22;8791;50.876;4.342;2023-05-16T08:52:30;12.30;99.90
17348;DHT22;8791;50.876;4.342;2023-05-16T08:55:01;12.30;99.90
17348;DHT22;8791;50.876;4.342;2023-05-16T08:57:30;12.30;99.90
17348;DHT22;8791;50.876;4.342;2023-05-16T08:59:59;12.30;99.90
17348;DHT22;8791;50.876;4.342;2023-05-16T09:02:26;12.20;99.90
17348;DHT22;8791;50.876;4.342;2023-05-16T09:04:55;12.00;99.90
17348;DHT22;8791;50.876;4.342;2023-05-16T09:07:24;12.20;99.90
17348;DHT22;8791;50.876;4.342;2023-05-16T09:09:51;12.50;99.90
17348;DHT22;8791;50.876;4.342;2023-05-16T09:12:19;12.80;99.90
17348;DHT22;8791;50.876;4.342;2023-05-16T09:14:47;12.60;99.90
17348;DHT22;8791;50.876;4.342;2023-05-16T09:17:14;12.60;99.90
17348;DHT22;8791;50.876;4.342;2023-05-16T09:19:42;12.90;99.90
17348;DHT22;8791;50.876;4.342;2023-05-16T09:22:11;13.00;99.90
17348;DHT22;8791;50.876;4.342;2023-05-16T09:24:39;12.80;99.90
17348;DHT22;8791;50.876;4.342;2023-05-16T09:27:10;12.90;99.90
17348;DHT22;8791;50.876;4.342;2023-05-16T09:29:39;13.20;99.90
17348;DHT22;8791;50.876;4.342;2023-05-16T09:32:11;13.40;99.90
17348;DHT22;8791;50.876;4.342;2023-05-16T09:34:42;13.50;99.90
17348;DHT22;8791;50.876;4.342;2023-05-16T09:37:11;13.30;99.90
17348;DHT22;8791;50.876;4.342;2023-05-16T09:42:10;13.70;99.90
17348;DHT22;8791;50.876;4.342;2023-05-16T09:44:37;13.60;99.90
17348;DHT22;8791;50.876;4.342;2023-05-16T09:47:04;13.50;99.90
17348;DHT22;8791;50.876;4.342;2023-05-16T09:49:31;13.40;99.90
17348;DHT22;8791;50.876;4.342;2023-05-16T09:52:00;13.40;99.90
17348;DHT22;8791;50.876;4.342;2023-05-16T09:54:31;13.50;99.90
17348;DHT22;8791;50.876;4.342;2023-05-16T09:56:59;13.60;99.90
17348;DHT22;8791;50.876;4.342;2023-05-16T09:59:28;13.90;99.90
17348;DHT22;8791;50.876;4.342;2023-05-16T10:01:57;14.00;99.90
17348;DHT22;8791;50.876;4.342;2023-05-16T10:04:25;14.00;99.90
17348;DHT22;8791;50.876;4.342;2023-05-16T10:06:54;14.10;99.90
17348;DHT22;8791;50.876;4.342;2023-05-16T10:09:22;14.40;99.90
17348;DHT22;8791;50.876;4.342;2023-05-16T10:11:51;14.10;99.90
17348;DHT22;8791;50.876;4.342;2023-05-16T10:14:18;14.00;99.90
17348;DHT22;8791;50.876;4.342;2023-05-16T10:16:47;14.20;99.90
17348;DHT22;8791;50.876;4.342;2023-05-16T10:19:15;14.50;99.90
17348;DHT22;8791;50.876;4.342;2023-05-16T10:21:47;14.60;99.90
17348;DHT22;8791;50.876;4.342;2023-05-16T10:24:23;14.70;99.90
17348;DHT22;8791;50.876;4.342;2023-05-16T10:26:52;14.80;99.90
17348;DHT22;8791;50.876;4.342;2023-05-16T10:29:19;14.60;99.90
17348;DHT22;8791;50.876;4.342;2023-05-16T10:31:47;14.60;99.90
17348;DHT22;8791;50.876;4.342;2023-05-16T10:34:15;14.60;99.90
17348;DHT22;8791;50.876;4.342;2023-05-16T10:36:42;14.90;99.90
17348;DHT22;8791;50.876;4.342;2023-05-16T10:39:10;15.30;99.90
17348;DHT22;8791;50.876;4.342;2023-05-16T10:41:37;15.30;99.90
17348;DHT22;8791;50.876;4.342;2023-05-16T10:44:12;15.40;99.90
17348;DHT22;8791;50.876;4.342;2023-05-16T10:46:40;15.10;99.90
17348;DHT22;8791;50.876;4.342;2023-05-16T10:49:21;14.70;99.90
17348;DHT22;8791;50.876;4.342;2023-05-16T10:52:06;14.90;99.90
17348;DHT22;8791;50.876;4.342;2023-05-16T10:54:35;14.80;99.90
17348;DHT22;8791;50.876;4.342;2023-05-16T10:57:08;14.50;99.90
17348;DHT22;8791;50.876;4.342;2023-05-16T10:59:42;14.20;99.90
17348;DHT22;8791;50.876;4.342;2023-05-16T11:02:30;14.20;99.90
17348;DHT22;8791;50.876;4.342;2023-05-16T11:04:59;14.40;99.90
17348;DHT22;8791;50.876;4.342;2023-05-16T11:07:31;14.70;99.90
17348;DHT22;8791;50.876;4.342;2023-05-16T11:10:04;14.80;99.90
17348;DHT22;8791;50.876;4.342;2023-05-16T11:12:47;14.80;99.90
17348;DHT22;8791;50.876;4.342;2023-05-16T11:15:23;15.10;99.90
17348;DHT22;8791;50.876;4.342;2023-05-16T11:17:53;15.40;99.90
17348;DHT22;8791;50.876;4.342;2023-05-16T11:20:32;15.10;99.90
17348;DHT22;8791;50.876;4.342;2023-05-16T11:23:22;14.70;99.90
17348;DHT22;8791;50.876;4.342;2023-05-16T11:25:53;14.60;99.90
17348;DHT22;8791;50.876;4.342;2023-05-16T11:28:22;14.90;99.90
17348;DHT22;8791;50.876;4.342;2023-05-16T11:30:53;14.50;99.90
17348;DHT22;8791;50.876;4.342;2023-05-16T11:33:21;14.20;99.90
17348;DHT22;8791;50.876;4.342;2023-05-16T11:36:03;14.30;99.90
17348;DHT22;8791;50.876;4.342;2023-05-16T11:38:30;14.50;99.90
17348;DHT22;8791;50.876;4.342;2023-05-16T11:41:04;14.60;99.90
17348;DHT22;8791;50.876;4.342;2023-05-16T11:43:39;14.70;99.90
17348;DHT22;8791;50.876;4.342;2023-05-16T11:46:10;14.80;99.90
17348;DHT22;8791;50.876;4.342;2023-05-16T11:48:37;14.40;99.90
17348;DHT22;8791;50.876;4.342;2023-05-16T11:51:04;14.40;99.90
17348;DHT22;8791;50.876;4.342;2023-05-16T11:53:32;14.40;99.90
17348;DHT22;8791;50.876;4.342;2023-05-16T11:55:59;14.50;99.90
17348;DHT22;8791;50.876;4.342;2023-05-16T11:58:27;14.70;99.90
17348;DHT22;8791;50.876;4.342;2023-05-16T12:00:54;14.80;99.90
17348;DHT22;8791;50.876;4.342;2023-05-16T12:03:23;15.00;99.90
17348;DHT22;8791;50.876;4.342;2023-05-16T12:05:50;15.10;99.90
17348;DHT22;8791;50.876;4.342;2023-05-16T12:08:18;15.30;99.90
17348;DHT22;8791;50.876;4.342;2023-05-16T12:10:48;15.40;99.90
17348;DHT22;8791;50.876;4.342;2023-05-16T12:13:16;15.40;99.90
17348;DHT22;8791;50.876;4.342;2023-05-16T12:15:43;15.40;99.90
17348;DHT22;8791;50.876;4.342;2023-05-16T12:18:11;15.20;99.90
17348;DHT22;8791;50.876;4.342;2023-05-16T12:20:40;15.30;99.90
17348;DHT22;8791;50.876;4.342;2023-05-16T12:23:09;15.40;99.90
17348;DHT22;8791;50.876;4.342;2023-05-16T12:25:37;15.20;99.90
17348;DHT22;8791;50.876;4.342;2023-05-16T12:28:08;15.20;99.90
17348;DHT22;8791;50.876;4.342;2023-05-16T12:30:40;15.30;99.90
17348;DHT22;8791;50.876;4.342;2023-05-16T12:33:08;15.50;99.90
17348;DHT22;8791;50.876;4.342;2023-05-16T12:35:39;15.30;99.90
17348;DHT22;8791;50.876;4.342;2023-05-16T12:38:07;15.30;99.90
17348;DHT22;8791;50.876;4.342;2023-05-16T12:40:39;15.50;99.90
17348;DHT22;8791;50.876;4.342;2023-05-16T12:43:12;15.60;99.90
17348;DHT22;8791;50.876;4.342;2023-05-16T12:45:40;15.70;99.90
17348;DHT22;8791;50.876;4.342;2023-05-16T12:48:11;15.80;99.90
17348;DHT22;8791;50.876;4.342;2023-05-16T12:50:42;15.40;99.90
17348;DHT22;8791;50.876;4.342;2023-05-16T12:53:12;15.30;99.90
17348;DHT22;8791;50.876;4.342;2023-05-16T12:55:39;15.10;99.90
17348;DHT22;8791;50.876;4.342;2023-05-16T12:58:07;15.30;99.90
17348;DHT22;8791;50.876;4.342;2023-05-16T13:00:34;15.30;99.90
17348;DHT22;8791;50.876;4.342;2023-05-16T13:03:02;15.60;99.90
17348;DHT22;8791;50.876;4.342;2023-05-16T13:05:30;15.90;99.90
17348;DHT22;8791;50.876;4.342;2023-05-16T13:07:58;16.10;99.90
17348;DHT22;8791;50.876;4.342;2023-05-16T13:10:25;16.00;99.90
17348;DHT22;8791;50.876;4.342;2023-05-16T13:12:52;16.20;99.90
17348;DHT22;8791;50.876;4.342;2023-05-16T13:15:23;16.10;99.90
17348;DHT22;8791;50.876;4.342;2023-05-16T13:17:50;16.10;99.90
17348;DHT22;8791;50.876;4.342;2023-05-16T13:20:17;16.00;99.90
17348;DHT22;8791;50.876;4.342;2023-05-16T13:22:44;16.10;99.90
17348;DHT22;8791;50.876;4.342;2023-05-16T13:25:12;15.70;99.90
17348;DHT22;8791;50.876;4.342;2023-05-16T13:27:39;15.50;99.90
17348;DHT22;8791;50.876;4.342;2023-05-16T13:30:07;15.70;99.90
17348;DHT22;8791;50.876;4.342;2023-05-16T13:32:34;15.80;99.90
17348;DHT22;8791;50.876;4.342;2023-05-16T13:35:01;15.80;99.90
17348;DHT22;8791;50.876;4.342;2023-05-16T13:37:29;15.60;99.90
17348;DHT22;8791;50.876;4.342;2023-05-16T13:39:56;15.40;99.90
17348;DHT22;8791;50.876;4.342;2023-05-16T13:42:24;15.40;99.90
17348;DHT22;8791;50.876;4.342;2023-05-16T13:44:51;15.60;99.90
17348;DHT22;8791;50.876;4.342;2023-05-16T13:47:18;15.60;99.90
17348;DHT22;8791;50.876;4.342;2023-05-16T13:49:45;15.60;99.90
17348;DHT22;8791;50.876;4.342;2023-05-16T13:52:13;15.60;99.90
17348;DHT22;8791;50.876;4.342;2023-05-16T13:54:41;15.60;99.90
17348;DHT22;8791;50.876;4.342;2023-05-16T13:57:08;15.50;99.90
17348;DHT22;8791;50.876;4.342;2023-05-16T13:59:37;15.50;99.90
17348;DHT22;8791;50.876;4.342;2023-05-16T14:02:04;15.50;99.90
17348;DHT22;8791;50.876;4.342;2023-05-16T14:04:31;15.60;99.90
17348;DHT22;8791;50.876;4.342;2023-05-16T14:06:58;15.70;99.90
17348;DHT22;8791;50.876;4.342;2023-05-16T14:09:25;15.50;99.90
17348;DHT22;8791;50.876;4.342;2023-05-16T14:11:52;15.40;99.90
17348;DHT22;8791;50.876;4.342;2023-05-16T14:14:19;15.30;99.90
17348;DHT22;8791;50.876;4.342;2023-05-16T14:16:47;15.30;99.90
17348;DHT22;8791;50.876;4.342;2023-05-16T14:19:14;15.50;99.90
17348;DHT22;8791;50.876;4.342;2023-05-16T14:21:41;15.40;99.90
17348;DHT22;8791;50.876;4.342;2023-05-16T14:24:08;15.60;99.90
17348;DHT22;8791;50.876;4.342;2023-05-16T14:26:35;15.70;99.90
17348;DHT22;8791;50.876;4.342;2023-05-16T14:29:02;15.80;99.90
17348;DHT22;8791;50.876;4.342;2023-05-16T14:31:29;15.70;99.90
17348;DHT22;8791;50.876;4.342;2023-05-16T14:33:57;15.60;99.90
17348;DHT22;8791;50.876;4.342;2023-05-16T14:36:24;15.60;99.90
17348;DHT22;8791;50.876;4.342;2023-05-16T14:38:52;15.50;99.90
17348;DHT22;8791;50.876;4.342;2023-05-16T14:41:18;15.70;99.90
17348;DHT22;8791;50.876;4.342;2023-05-16T14:43:45;15.60;99.90
17348;DHT22;8791;50.876;4.342;2023-05-16T14:46:12;15.60;99.90
17348;DHT22;8791;50.876;4.342;2023-05-16T14:48:39;15.80;99.90
17348;DHT22;8791;50.876;4.342;2023-05-16T14:51:08;16.00;99.90
17348;DHT22;8791;50.876;4.342;2023-05-16T14:53:35;16.00;99.90
17348;DHT22;8791;50.876;4.342;2023-05-16T14:56:02;16.10;99.90
17348;DHT22;8791;50.876;4.342;2023-05-16T14:58:30;16.00;99.90
17348;DHT22;8791;50.876;4.342;2023-05-16T15:00:56;15.90;99.90
17348;DHT22;8791;50.876;4.342;2023-05-16T15:03:23;15.70;99.90
17348;DHT22;8791;50.876;4.342;2023-05-16T15:05:50;15.60;99.90
17348;DHT22;8791;50.876;4.342;2023-05-16T15:08:20;15.80;99.90
17348;DHT22;8791;50.876;4.342;2023-05-16T15:10:50;16.10;99.90
17348;DHT22;8791;50.876;4.342;2023-05-16T15:13:17;16.10;99.90
17348;DHT22;8791;50.876;4.342;2023-05-16T15:15:47;16.20;99.90
17348;DHT22;8791;50.876;4.342;2023-05-16T15:18:17;16.20;99.90
17348;DHT22;8791;50.876;4.342;2023-05-16T15:20:44;16.20;99.90
17348;DHT22;8791;50.876;4.342;2023-05-16T15:23:11;16.10;99.90
17348;DHT22;8791;50.876;4.342;2023-05-16T15:25:40;16.70;99.90
17348;DHT22;8791;50.876;4.342;2023-05-16T15:28:07;16.80;99.90
17348;DHT22;8791;50.876;4.342;2023-05-16T15:30:34;17.50;99.90
17348;DHT22;8791;50.876;4.342;2023-05-16T15:33:01;17.80;99.90
17348;DHT22;8791;50.876;4.342;2023-05-16T15:35:27;18.40;99.90
17348;DHT22;8791;50.876;4.342;2023-05-16T15:37:54;18.60;99.90
17348;DHT22;8791;50.876;4.342;2023-05-16T15:40:24;19.00;99.90
17348;DHT22;8791;50.876;4.342;2023-05-16T15:42:53;19.40;99.90
17348;DHT22;8791;50.876;4.342;2023-05-16T15:45:19;20.00;99.90
17348;DHT22;8791;50.876;4.342;2023-05-16T15:47:46;19.40;99.90
17348;DHT22;8791;50.876;4.342;2023-05-16T15:50:13;18.20;99.90
17348;DHT22;8791;50.876;4.342;2023-05-16T15:52:40;18.20;99.90
17348;DHT22;8791;50.876;4.342;2023-05-16T15:55:08;18.10;99.90
17348;DHT22;8791;50.876;4.342;2023-05-16T15:57:36;18.20;99.90
17348;DHT22;8791;50.876;4.342;2023-05-16T16:00:06;17.80;99.90